createdAt,value
2019-02-22T00:00:47.487Z,90.93
2019-02-22T00:01:47.462Z,90.87
2019-02-22T00:02:47.459Z,90.56
2019-02-22T00:03:47.423Z,90.62
2019-02-22T00:04:47.399Z,90.52
2019-02-22T00:05:47.502Z,90.67
2019-02-22T00:06:47.413Z,90.52
2019-02-22T00:07:47.394Z,90.93
2019-02-22T00:08:47.395Z,90.83
2019-02-22T00:09:49.685Z,90.46
2019-02-22T00:10:47.359Z,91.08
2019-02-22T00:11:47.385Z,90.97
2019-02-22T00:12:47.349Z,91.18
2019-02-22T00:13:47.363Z,91.69
2019-02-22T00:14:47.354Z,92.00
2019-02-22T00:15:47.282Z,91.59
2019-02-22T00:16:47.330Z,91.59
2019-02-22T00:17:47.261Z,91.80
2019-02-22T00:18:47.250Z,91.90
2019-02-22T00:19:48.626Z,91.80
2019-02-22T00:20:47.223Z,91.90
2019-02-22T00:21:47.271Z,91.90
2019-02-22T00:22:47.216Z,91.80
2019-02-22T00:23:47.197Z,91.08
2019-02-22T00:24:47.183Z,91.18
2019-02-22T00:25:47.182Z,91.03
2019-02-22T00:26:47.163Z,91.28
2019-02-22T00:27:47.197Z,91.08
2019-02-22T00:28:47.136Z,90.87
2019-02-22T00:29:47.117Z,91.18
2019-02-22T00:30:47.118Z,90.97
2019-02-22T00:31:47.148Z,90.77
2019-02-22T00:32:47.088Z,90.77
2019-02-22T00:33:47.099Z,91.35
2019-02-22T00:34:47.121Z,90.87
2019-02-22T00:35:47.149Z,90.52
2019-02-22T00:36:47.157Z,90.52
2019-02-22T00:37:47.041Z,90.46
2019-02-22T00:38:47.052Z,90.87
2019-02-22T00:39:47.021Z,90.93
2019-02-22T00:40:46.988Z,90.97
2019-02-22T00:41:47.024Z,90.93
2019-02-22T00:42:47.061Z,90.42
2019-02-22T00:43:46.977Z,90.11
2019-02-22T00:44:46.964Z,90.62
2019-02-22T00:45:46.949Z,90.36
2019-02-22T00:46:46.941Z,90.77
2019-02-22T00:47:46.980Z,90.67
2019-02-22T00:48:46.930Z,90.67
2019-02-22T00:49:46.909Z,90.46
2019-02-22T00:50:46.901Z,90.87
2019-02-22T00:51:46.950Z,91.08
2019-02-22T00:52:46.889Z,90.97
2019-02-22T00:53:46.876Z,90.67
2019-02-22T00:54:46.853Z,90.67
2019-02-22T00:55:46.823Z,90.97
2019-02-22T00:56:46.833Z,90.67
2019-02-22T00:57:46.865Z,90.56
2019-02-22T00:58:46.801Z,90.36
2019-02-22T00:59:46.803Z,90.93
2019-02-22T01:00:46.785Z,90.93
2019-02-22T01:01:46.776Z,90.87
2019-02-22T01:02:46.765Z,90.97
2019-02-22T01:03:46.790Z,91.08
2019-02-22T01:04:46.754Z,91.59
2019-02-22T01:05:46.731Z,91.80
2019-02-22T01:06:46.718Z,91.69
2019-02-22T01:07:46.976Z,91.59
2019-02-22T01:08:46.740Z,91.69
2019-02-22T01:09:46.708Z,91.69
2019-02-22T01:10:46.685Z,92.10
2019-02-22T01:11:46.769Z,91.69
2019-02-22T01:12:46.713Z,91.80
2019-02-22T01:13:46.779Z,91.74
2019-02-22T01:14:46.654Z,92.31
2019-02-22T01:15:46.648Z,91.18
2019-02-22T01:16:46.635Z,91.80
2019-02-22T01:17:46.647Z,91.59
2019-02-22T01:18:46.606Z,92.04
2019-02-22T01:19:46.599Z,92.00
2019-02-22T01:20:54.073Z,92.21
2019-02-22T01:21:47.610Z,92.21
2019-02-22T01:22:46.531Z,92.14
2019-02-22T01:23:46.566Z,92.21
2019-02-22T01:24:46.503Z,91.90
2019-02-22T01:25:46.588Z,91.69
2019-02-22T01:26:46.520Z,91.38
2019-02-22T01:27:46.497Z,91.42
2019-02-22T01:28:46.494Z,91.90
2019-02-22T01:29:46.483Z,91.59
2019-02-22T01:30:46.441Z,91.59
2019-02-22T01:31:46.451Z,91.90
2019-02-22T01:32:46.432Z,92.35
2019-02-22T01:33:46.457Z,92.14
2019-02-22T01:34:46.416Z,92.66
2019-02-22T01:35:46.397Z,93.17
2019-02-22T01:36:46.390Z,92.76
2019-02-22T01:37:46.377Z,92.55
2019-02-22T01:38:46.409Z,92.86
2019-02-22T01:39:46.368Z,92.97
2019-02-22T01:40:46.349Z,93.68
2019-02-22T01:41:46.332Z,93.27
2019-02-22T01:42:46.321Z,93.48
2019-02-22T01:43:46.319Z,93.38
2019-02-22T01:44:46.381Z,93.52
2019-02-22T01:45:46.287Z,93.68
2019-02-22T01:46:46.272Z,93.93
2019-02-22T01:47:46.263Z,93.89
2019-02-22T01:48:46.253Z,93.27
2019-02-22T01:49:46.290Z,92.97
2019-02-22T01:50:46.217Z,93.17
2019-02-22T01:51:46.225Z,93.48
2019-02-22T01:52:46.234Z,93.27
2019-02-22T01:53:46.227Z,93.48
2019-02-22T01:54:46.203Z,93.27
2019-02-22T01:55:46.211Z,93.27
2019-02-22T01:56:46.170Z,93.07
2019-02-22T01:57:46.165Z,93.17
2019-02-22T01:58:48.996Z,93.17
2019-02-22T01:59:46.163Z,93.17
2019-02-22T02:00:46.133Z,93.38
2019-02-22T02:01:46.112Z,93.59
2019-02-22T02:02:46.108Z,93.38
2019-02-22T02:03:46.117Z,93.48
2019-02-22T02:04:46.138Z,93.68
2019-02-22T02:05:46.092Z,93.79
2019-02-22T02:06:46.080Z,93.17
2019-02-22T02:07:46.046Z,93.38
2019-02-22T02:08:46.105Z,93.38
2019-02-22T02:09:46.056Z,93.27
2019-02-22T02:10:53.821Z,93.33
2019-02-22T02:11:46.996Z,93.38
2019-02-22T02:12:45.974Z,93.38
2019-02-22T02:13:45.995Z,93.48
2019-02-22T02:14:45.990Z,93.59
2019-02-22T02:15:45.988Z,92.97
2019-02-22T02:16:45.941Z,92.76
2019-02-22T02:17:45.930Z,92.82
2019-02-22T02:18:45.949Z,92.61
2019-02-22T02:19:45.958Z,92.72
2019-02-22T02:20:46.051Z,92.82
2019-02-22T02:21:45.887Z,92.31
2019-02-22T02:22:45.874Z,92.10
2019-02-22T02:23:45.875Z,92.66
2019-02-22T02:24:45.874Z,92.66
2019-02-22T02:25:45.876Z,92.41
2019-02-22T02:26:45.857Z,92.51
2019-02-22T02:27:45.848Z,92.55
2019-02-22T02:28:45.806Z,92.76
2019-02-22T02:29:45.804Z,92.35
2019-02-22T02:30:45.825Z,92.35
2019-02-22T02:31:45.810Z,92.51
2019-02-22T02:32:45.817Z,92.51
2019-02-22T02:33:45.999Z,92.41
2019-02-22T02:34:45.731Z,92.41
2019-02-22T02:35:45.819Z,92.41
2019-02-22T02:36:45.748Z,92.10
2019-02-22T02:37:45.721Z,92.41
2019-02-22T02:38:45.689Z,91.69
2019-02-22T02:39:45.728Z,91.59
2019-02-22T02:40:45.705Z,92.00
2019-02-22T02:41:45.669Z,92.31
2019-02-22T02:42:45.687Z,91.49
2019-02-22T02:43:45.679Z,91.59
2019-02-22T02:44:45.644Z,91.49
2019-02-22T02:45:45.688Z,91.80
2019-02-22T02:46:45.609Z,92.00
2019-02-22T02:47:45.648Z,92.21
2019-02-22T02:48:45.600Z,91.80
2019-02-22T02:49:45.603Z,91.69
2019-02-22T02:50:45.677Z,91.59
2019-02-22T02:51:45.607Z,91.90
2019-02-22T02:52:45.544Z,92.14
2019-02-22T02:53:45.532Z,92.10
2019-02-22T02:54:45.534Z,92.25
2019-02-22T02:55:45.624Z,92.41
2019-02-22T02:56:46.367Z,92.46
2019-02-22T02:57:45.538Z,92.66
2019-02-22T02:58:45.526Z,92.66
2019-02-22T02:59:45.485Z,92.76
2019-02-22T03:00:45.454Z,92.35
2019-02-22T03:01:45.484Z,92.46
2019-02-22T03:02:45.492Z,92.86
2019-02-22T03:03:45.446Z,92.86
2019-02-22T03:04:45.423Z,92.55
2019-02-22T03:05:45.419Z,92.46
2019-02-22T03:06:45.438Z,92.86
2019-02-22T03:07:45.451Z,93.48
2019-02-22T03:08:45.363Z,93.27
2019-02-22T03:09:45.371Z,93.48
2019-02-22T03:10:45.353Z,93.17
2019-02-22T03:11:45.485Z,93.17
2019-02-22T03:12:45.300Z,93.17
2019-02-22T03:13:45.306Z,93.17
2019-02-22T03:14:45.303Z,93.89
2019-02-22T03:15:45.263Z,93.89
2019-02-22T03:16:45.301Z,93.68
2019-02-22T03:17:45.244Z,93.89
2019-02-22T03:18:45.246Z,93.42
2019-02-22T03:19:45.226Z,93.59
2019-02-22T03:20:45.211Z,93.59
2019-02-22T03:21:45.196Z,93.68
2019-02-22T03:22:45.207Z,93.73
2019-02-22T03:23:45.192Z,93.68
2019-02-22T03:24:45.186Z,93.83
2019-02-22T03:25:45.171Z,93.79
2019-02-22T03:26:45.181Z,93.89
2019-02-22T03:27:45.126Z,94.04
2019-02-22T03:28:45.166Z,94.55
2019-02-22T03:29:45.136Z,94.10
2019-02-22T03:32:18.789Z,94.61
2019-02-22T03:33:18.704Z,94.65
2019-02-22T03:34:18.633Z,94.34
2019-02-22T03:35:18.635Z,94.45
2019-02-22T03:36:18.605Z,94.45
2019-02-22T03:37:18.649Z,94.45
2019-02-22T03:38:18.617Z,94.40
2019-02-22T03:39:18.581Z,94.24
2019-02-22T03:40:18.574Z,94.51
2019-02-22T03:41:18.633Z,94.51
2019-02-22T03:42:18.564Z,94.76
2019-02-22T03:43:18.566Z,94.81
2019-02-22T03:44:18.548Z,94.45
2019-02-22T03:45:18.589Z,94.40
2019-02-22T03:46:18.498Z,94.20
2019-02-22T03:47:18.507Z,94.24
2019-02-22T03:48:18.497Z,94.30
2019-02-22T03:49:18.513Z,94.55
2019-02-22T03:50:18.461Z,94.40
2019-02-22T03:51:18.462Z,94.40
2019-02-22T03:52:18.508Z,94.51
2019-02-22T03:53:18.462Z,94.45
2019-02-22T03:54:18.415Z,94.71
2019-02-22T03:55:18.404Z,94.85
2019-02-22T03:56:18.395Z,94.65
2019-02-22T03:57:18.413Z,94.40
2019-02-22T03:58:18.414Z,94.45
2019-02-22T03:59:18.356Z,94.71
2019-02-22T04:00:18.345Z,94.34
2019-02-22T04:01:18.334Z,94.61
2019-02-22T04:02:18.340Z,94.61
2019-02-22T04:03:18.319Z,94.85
2019-02-22T04:04:18.330Z,94.55
2019-02-22T04:05:18.311Z,94.65
2019-02-22T04:06:18.290Z,94.85
2019-02-22T04:07:18.272Z,94.65
2019-02-22T04:08:18.274Z,94.51
2019-02-22T04:09:18.273Z,94.65
2019-02-22T04:10:18.258Z,94.92
2019-02-22T04:11:18.240Z,94.76
2019-02-22T04:12:18.217Z,94.76
2019-02-22T04:13:18.264Z,94.55
2019-02-22T04:14:18.213Z,94.55
2019-02-22T04:15:18.187Z,94.65
2019-02-22T04:16:18.173Z,94.65
2019-02-22T04:17:18.165Z,94.61
2019-02-22T04:18:18.200Z,94.76
2019-02-22T04:19:18.170Z,94.96
2019-02-22T04:20:18.139Z,94.92
2019-02-22T04:21:18.109Z,95.17
2019-02-22T04:22:18.096Z,95.27
2019-02-22T04:23:18.136Z,95.32
2019-02-22T04:24:18.082Z,95.23
2019-02-22T04:25:18.101Z,95.23
2019-02-22T04:26:18.062Z,95.12
2019-02-22T04:27:18.050Z,94.61
2019-02-22T04:28:18.072Z,94.20
2019-02-22T04:29:18.032Z,94.40
2019-02-22T04:30:18.067Z,94.30
2019-02-22T04:31:18.006Z,94.71
2019-02-22T04:32:17.994Z,94.71
2019-02-22T04:33:18.018Z,94.71
2019-02-22T04:34:18.009Z,94.40
2019-02-22T04:35:17.992Z,94.20
2019-02-22T04:36:18.005Z,93.79
2019-02-22T04:37:17.966Z,93.89
2019-02-22T04:38:17.954Z,93.89
2019-02-22T04:39:18.073Z,93.99
2019-02-22T04:40:17.939Z,93.89
2019-02-22T04:41:17.920Z,93.48
2019-02-22T04:42:17.893Z,93.27
2019-02-22T04:43:17.879Z,93.48
2019-02-22T04:44:17.874Z,93.38
2019-02-22T04:45:17.955Z,93.38
2019-02-22T04:46:18.290Z,93.38
2019-02-22T04:47:17.869Z,93.27
2019-02-22T04:48:17.845Z,93.44
2019-02-22T04:49:17.841Z,93.38
2019-02-22T04:50:17.822Z,93.68
2019-02-22T04:51:17.768Z,93.48
2019-02-22T04:52:17.775Z,92.97
2019-02-22T04:53:17.768Z,92.55
2019-02-22T04:54:17.823Z,92.46
2019-02-22T04:55:17.737Z,93.07
2019-02-22T04:56:17.737Z,92.55
2019-02-22T04:57:17.717Z,93.48
2019-02-22T04:58:17.710Z,93.59
2019-02-22T04:59:17.746Z,93.07
2019-02-22T05:00:17.752Z,93.38
2019-02-22T05:01:17.679Z,93.27
2019-02-22T05:02:17.650Z,93.27
2019-02-22T05:03:17.662Z,93.38
2019-02-22T05:04:17.644Z,93.27
2019-02-22T05:05:17.697Z,93.59
2019-02-22T05:06:17.633Z,93.59
2019-02-22T05:07:17.597Z,93.48
2019-02-22T05:08:17.592Z,92.97
2019-02-22T05:09:17.607Z,92.76
2019-02-22T05:10:17.616Z,92.66
2019-02-22T05:11:17.585Z,92.55
2019-02-22T05:12:17.565Z,92.46
2019-02-22T05:13:17.558Z,92.46
2019-02-22T05:14:17.539Z,92.46
2019-02-22T05:15:17.570Z,92.66
2019-02-22T05:16:17.532Z,92.86
2019-02-22T05:17:17.518Z,92.76
2019-02-22T05:18:17.559Z,93.07
2019-02-22T05:19:17.465Z,92.86
2019-02-22T05:20:17.475Z,92.97
2019-02-22T05:21:17.451Z,93.07
2019-02-22T05:22:17.443Z,92.25
2019-02-22T05:23:17.455Z,92.25
2019-02-22T05:24:17.469Z,92.35
2019-02-22T05:25:17.467Z,92.66
2019-02-22T05:26:17.415Z,92.76
2019-02-22T05:27:17.378Z,92.46
2019-02-22T05:28:17.387Z,92.35
2019-02-22T05:29:17.407Z,92.35
2019-02-22T05:30:17.390Z,92.35
2019-02-22T05:31:17.445Z,92.35
2019-02-22T05:32:17.377Z,92.46
2019-02-22T05:33:17.316Z,92.31
2019-02-22T05:34:17.319Z,92.46
2019-02-22T05:35:17.321Z,91.84
2019-02-22T05:36:17.292Z,91.94
2019-02-22T05:37:17.289Z,91.94
2019-02-22T05:38:17.273Z,92.35
2019-02-22T05:39:19.524Z,92.76
2019-02-22T05:40:17.260Z,92.76
2019-02-22T05:41:17.244Z,92.76
2019-02-22T05:42:22.981Z,92.14
2019-02-22T05:43:18.241Z,92.25
2019-02-22T05:44:17.227Z,92.35
2019-02-22T05:45:17.207Z,92.66
2019-02-22T05:46:17.248Z,92.76
2019-02-22T05:47:17.161Z,92.55
2019-02-22T05:48:17.148Z,92.60
2019-02-22T05:49:17.200Z,93.17
2019-02-22T05:50:17.119Z,93.52
2019-02-22T05:51:17.119Z,93.42
2019-02-22T05:52:17.146Z,93.32
2019-02-22T05:53:17.129Z,93.42
2019-02-22T05:54:17.082Z,93.52
2019-02-22T05:55:17.070Z,94.14
2019-02-22T05:56:17.081Z,94.14
2019-02-22T05:57:17.092Z,93.89
2019-02-22T05:58:17.077Z,93.93
2019-02-22T05:59:17.029Z,93.63
2019-02-22T06:00:17.037Z,93.42
2019-02-22T06:01:17.007Z,93.73
2019-02-22T06:02:17.068Z,93.73
2019-02-22T06:03:17.030Z,94.04
2019-02-22T06:04:17.017Z,93.93
2019-02-22T06:05:16.977Z,93.93
2019-02-22T06:06:16.982Z,94.04
2019-02-22T06:07:16.947Z,93.93
2019-02-22T06:08:17.006Z,93.93
2019-02-22T06:09:16.963Z,93.93
2019-02-22T06:10:16.926Z,93.93
2019-02-22T06:11:16.914Z,93.93
2019-02-22T06:12:18.612Z,93.73
2019-02-22T06:13:16.939Z,93.73
2019-02-22T06:14:16.865Z,93.68
2019-02-22T06:15:16.881Z,93.83
2019-02-22T06:16:16.904Z,93.59
2019-02-22T06:17:16.854Z,93.93
2019-02-22T06:18:16.879Z,93.73
2019-02-22T06:19:16.836Z,94.10
2019-02-22T06:20:16.847Z,93.99
2019-02-22T06:21:16.868Z,93.48
2019-02-22T06:22:28.712Z,93.38
2019-02-22T06:23:17.803Z,93.27
2019-02-22T06:24:16.861Z,93.38
2019-02-22T06:25:16.817Z,93.48
2019-02-22T06:26:16.817Z,93.38
2019-02-22T06:27:16.802Z,93.59
2019-02-22T06:28:16.823Z,93.38
2019-02-22T06:29:16.756Z,93.59
2019-02-22T06:30:16.742Z,93.48
2019-02-22T06:31:16.715Z,93.79
2019-02-22T06:32:16.704Z,93.38
2019-02-22T06:33:16.813Z,93.63
2019-02-22T06:34:16.690Z,93.42
2019-02-22T06:35:16.656Z,93.52
2019-02-22T06:36:16.745Z,93.38
2019-02-22T06:37:16.641Z,93.52
2019-02-22T06:38:16.633Z,93.89
2019-02-22T06:39:16.642Z,93.99
2019-02-22T06:40:16.624Z,93.99
2019-02-22T06:41:16.617Z,94.14
2019-02-22T06:42:16.599Z,94.14
2019-02-22T06:43:16.579Z,94.14
2019-02-22T06:44:16.579Z,93.79
2019-02-22T06:45:16.528Z,94.10
2019-02-22T06:46:16.607Z,94.04
2019-02-22T06:47:16.575Z,93.99
2019-02-22T06:48:16.497Z,93.99
2019-02-22T06:49:16.484Z,94.04
2019-02-22T06:50:16.495Z,94.24
2019-02-22T06:51:16.458Z,94.14
2019-02-22T06:52:16.464Z,93.83
2019-02-22T06:53:16.708Z,93.73
2019-02-22T06:54:16.436Z,94.04
2019-02-22T06:55:16.442Z,94.24
2019-02-22T06:56:16.425Z,94.14
2019-02-22T06:57:16.414Z,94.96
2019-02-22T06:58:16.401Z,94.55
2019-02-22T06:59:16.397Z,94.76
2019-02-22T07:00:16.431Z,94.85
2019-02-22T07:01:16.369Z,94.04
2019-02-22T07:02:16.356Z,94.76
2019-02-22T07:03:16.334Z,94.40
2019-02-22T07:04:16.391Z,94.55
2019-02-22T07:05:16.353Z,94.40
2019-02-22T07:06:16.345Z,94.45
2019-02-22T07:07:16.362Z,94.65
2019-02-22T07:08:16.316Z,94.45
2019-02-22T07:09:16.360Z,94.04
2019-02-22T07:10:16.281Z,94.45
2019-02-22T07:11:16.265Z,94.96
2019-02-22T07:12:16.278Z,94.45
2019-02-22T07:13:16.238Z,94.55
2019-02-22T07:14:16.230Z,94.65
2019-02-22T07:15:16.272Z,94.85
2019-02-22T07:16:16.201Z,94.76
2019-02-22T07:17:16.427Z,94.45
2019-02-22T07:18:16.182Z,94.34
2019-02-22T07:19:16.171Z,94.55
2019-02-22T07:20:16.162Z,94.45
2019-02-22T07:21:16.129Z,94.55
2019-02-22T07:22:16.144Z,94.65
2019-02-22T07:23:16.150Z,94.55
2019-02-22T07:24:16.135Z,94.45
2019-02-22T07:25:16.106Z,94.65
2019-02-22T07:26:16.097Z,94.85
2019-02-22T07:27:16.076Z,94.96
2019-02-22T07:28:16.096Z,94.55
2019-02-22T07:29:16.099Z,94.76
2019-02-22T07:30:16.084Z,94.76
2019-02-22T07:31:16.047Z,94.76
2019-02-22T07:32:16.029Z,94.76
2019-02-22T07:33:16.006Z,94.76
2019-02-22T07:34:16.013Z,94.76
2019-02-22T07:35:16.008Z,94.76
2019-02-22T07:36:15.971Z,94.96
2019-02-22T07:37:15.979Z,94.55
2019-02-22T07:38:15.965Z,94.96
2019-02-22T07:39:27.018Z,94.85
2019-02-22T07:40:19.794Z,94.65
2019-02-22T07:41:15.966Z,94.40
2019-02-22T07:42:15.937Z,94.45
2019-02-22T07:43:15.938Z,94.24
2019-02-22T07:44:15.923Z,94.45
2019-02-22T07:45:15.888Z,94.55
2019-02-22T07:46:15.884Z,94.40
2019-02-22T07:47:15.852Z,94.65
2019-02-22T07:48:15.860Z,94.40
2019-02-22T07:49:15.851Z,94.40
2019-02-22T07:50:15.912Z,94.65
2019-02-22T07:51:15.850Z,94.61
2019-02-22T07:52:15.871Z,94.34
2019-02-22T07:53:15.821Z,94.40
2019-02-22T07:54:15.795Z,94.51
2019-02-22T07:55:15.800Z,94.51
2019-02-22T07:56:15.832Z,94.30
2019-02-22T07:57:15.758Z,93.99
2019-02-22T07:58:15.753Z,93.89
2019-02-22T07:59:15.746Z,93.68
2019-02-22T08:00:15.712Z,93.59
2019-02-22T08:01:15.726Z,94.20
2019-02-22T08:02:15.715Z,93.68
2019-02-22T08:03:16.052Z,93.89
2019-02-22T08:04:15.742Z,93.89
2019-02-22T08:05:15.724Z,93.99
2019-02-22T08:06:15.710Z,93.48
2019-02-22T08:07:15.660Z,93.68
2019-02-22T08:08:15.622Z,93.48
2019-02-22T08:09:15.730Z,93.68
2019-02-22T08:10:15.647Z,93.89
2019-02-22T08:11:15.644Z,93.89
2019-02-22T08:12:15.626Z,93.89
2019-02-22T08:13:19.839Z,93.38
2019-02-22T08:14:15.627Z,93.89
2019-02-22T08:15:15.663Z,93.99
2019-02-22T08:16:15.612Z,93.59
2019-02-22T08:17:15.549Z,93.68
2019-02-22T08:18:15.513Z,93.38
2019-02-22T08:19:15.519Z,93.38
2019-02-22T08:20:15.497Z,93.89
2019-02-22T08:21:15.535Z,93.68
2019-02-22T08:22:15.492Z,93.68
2019-02-22T08:23:15.464Z,94.04
2019-02-22T08:24:15.513Z,93.99
2019-02-22T08:25:15.476Z,94.10
2019-02-22T08:26:15.473Z,93.99
2019-02-22T08:27:15.435Z,94.40
2019-02-22T08:28:15.467Z,94.51
2019-02-22T08:29:15.427Z,94.10
2019-02-22T08:30:15.413Z,93.68
2019-02-22T08:31:15.406Z,93.48
2019-02-22T08:32:15.385Z,93.68
2019-02-22T08:33:15.368Z,93.89
2019-02-22T08:34:15.371Z,93.89
2019-02-22T08:35:15.405Z,93.89
2019-02-22T08:36:15.359Z,93.38
2019-02-22T08:37:15.357Z,93.79
2019-02-22T08:38:15.312Z,93.48
2019-02-22T08:39:15.310Z,93.95
2019-02-22T08:40:15.567Z,94.15
2019-02-22T08:41:15.281Z,93.54
2019-02-22T08:42:15.265Z,93.13
2019-02-22T08:43:15.261Z,93.13
2019-02-22T08:44:15.272Z,93.33
2019-02-22T08:45:15.246Z,93.44
2019-02-22T08:46:15.289Z,93.29
2019-02-22T08:47:15.246Z,93.54
2019-02-22T08:48:15.302Z,93.33
2019-02-22T08:49:15.174Z,92.93
2019-02-22T08:50:15.186Z,92.47
2019-02-22T08:51:15.178Z,92.68
2019-02-22T08:52:15.212Z,93.08
2019-02-22T08:53:15.170Z,92.32
2019-02-22T08:54:15.171Z,92.32
2019-02-22T08:55:15.121Z,92.27
2019-02-22T08:56:15.112Z,92.06
2019-02-22T08:57:15.138Z,91.50
2019-02-22T08:58:15.188Z,92.27
2019-02-22T08:59:15.084Z,92.27
2019-02-22T09:00:15.092Z,91.75
2019-02-22T09:01:15.046Z,92.22
2019-02-22T09:02:15.109Z,92.27
2019-02-22T09:03:15.058Z,91.91
2019-02-22T09:04:15.086Z,92.27
2019-02-22T09:05:15.081Z,91.96
2019-02-22T09:06:15.071Z,92.06
2019-02-22T09:07:15.024Z,91.82
2019-02-22T09:08:15.087Z,92.27
2019-02-22T09:09:14.952Z,91.86
2019-02-22T09:10:14.973Z,91.91
2019-02-22T09:11:14.949Z,91.55
2019-02-22T09:12:14.974Z,92.12
2019-02-22T09:13:14.964Z,92.02
2019-02-22T09:14:14.981Z,91.50
2019-02-22T09:15:14.927Z,92.02
2019-02-22T09:16:14.924Z,91.82
2019-02-22T09:17:14.874Z,92.02
2019-02-22T09:18:14.887Z,92.02
2019-02-22T09:19:14.889Z,91.75
2019-02-22T09:20:14.834Z,92.12
2019-02-22T09:21:14.845Z,91.50
2019-02-22T09:22:22.948Z,91.91
2019-02-22T09:23:15.849Z,91.50
2019-02-22T09:24:14.813Z,91.61
2019-02-22T09:25:14.823Z,91.71
2019-02-22T09:26:15.041Z,91.71
2019-02-22T09:27:14.799Z,91.20
2019-02-22T09:28:14.771Z,91.20
2019-02-22T09:29:14.758Z,90.79
2019-02-22T09:30:14.740Z,90.28
2019-02-22T09:31:14.775Z,90.69
2019-02-22T09:32:14.755Z,90.89
2019-02-22T09:33:14.784Z,90.84
2019-02-22T09:34:14.766Z,90.79
2019-02-22T09:35:14.666Z,90.48
2019-02-22T09:36:14.682Z,90.84
2019-02-22T09:37:14.693Z,90.44
2019-02-22T09:38:14.711Z,90.95
2019-02-22T09:39:14.667Z,90.84
2019-02-22T09:40:15.027Z,90.54
2019-02-22T09:41:14.643Z,90.95
2019-02-22T09:42:14.641Z,90.44
2019-02-22T09:43:14.652Z,90.34
2019-02-22T09:44:14.615Z,90.54
2019-02-22T09:45:14.606Z,90.03
2019-02-22T09:46:14.603Z,90.75
2019-02-22T09:47:14.581Z,90.34
2019-02-22T09:48:14.578Z,90.34
2019-02-22T09:49:14.553Z,90.34
2019-02-22T09:50:14.561Z,89.72
2019-02-22T09:51:14.533Z,89.51
2019-02-22T09:52:14.533Z,89.00
2019-02-22T09:53:14.516Z,88.80
2019-02-22T09:54:14.516Z,88.80
2019-02-22T09:55:14.521Z,88.70
2019-02-22T09:56:14.466Z,88.90
2019-02-22T09:57:14.451Z,88.49
2019-02-22T09:58:14.640Z,88.90
2019-02-22T09:59:14.427Z,88.39
2019-02-22T10:00:14.477Z,89.00
2019-02-22T10:01:14.398Z,88.90
2019-02-22T10:02:14.390Z,88.76
2019-02-22T10:03:14.377Z,88.90
2019-02-22T10:04:14.373Z,89.11
2019-02-22T10:05:14.361Z,89.11
2019-02-22T10:06:14.386Z,88.90
2019-02-22T10:07:14.343Z,88.39
2019-02-22T10:08:14.344Z,88.24
2019-02-22T10:09:14.314Z,88.35
2019-02-22T10:10:14.323Z,88.65
2019-02-22T10:11:14.340Z,88.35
2019-02-22T10:12:14.292Z,88.65
2019-02-22T10:13:14.295Z,88.86
2019-02-22T10:14:14.245Z,87.94
2019-02-22T10:15:14.249Z,87.63
2019-02-22T10:16:14.266Z,87.29
2019-02-22T10:17:14.257Z,87.59
2019-02-22T10:18:14.195Z,87.02
2019-02-22T10:19:14.201Z,86.77
2019-02-22T10:20:14.199Z,87.08
2019-02-22T10:21:14.212Z,86.77
2019-02-22T10:22:14.171Z,86.67
2019-02-22T10:23:14.200Z,86.40
2019-02-22T10:24:14.128Z,87.08
2019-02-22T10:25:14.151Z,87.08
2019-02-22T10:26:14.230Z,86.77
2019-02-22T10:27:14.172Z,86.67
2019-02-22T10:28:17.593Z,86.36
2019-02-22T10:29:14.096Z,86.67
2019-02-22T10:30:14.085Z,86.02
2019-02-22T10:31:14.148Z,86.36
2019-02-22T10:32:15.923Z,86.53
2019-02-22T10:33:14.588Z,86.43
2019-02-22T10:34:14.046Z,86.73
2019-02-22T10:35:14.028Z,86.32
2019-02-22T10:36:14.030Z,86.02
2019-02-22T10:37:14.041Z,85.61
2019-02-22T10:38:13.981Z,84.58
2019-02-22T10:39:13.980Z,84.58
2019-02-22T10:40:13.983Z,84.89
2019-02-22T10:41:13.946Z,84.79
2019-02-22T10:42:13.991Z,84.89
2019-02-22T10:43:13.951Z,84.69
2019-02-22T10:44:17.714Z,84.79
2019-02-22T10:45:13.961Z,84.79
2019-02-22T10:46:13.919Z,84.28
2019-02-22T10:47:13.955Z,84.58
2019-02-22T10:48:13.877Z,84.48
2019-02-22T10:49:13.882Z,84.38
2019-02-22T10:50:13.867Z,84.07
2019-02-22T10:51:13.879Z,84.69
2019-02-22T10:52:13.893Z,83.36
2019-02-22T10:53:13.859Z,83.46
2019-02-22T10:54:13.818Z,83.25
2019-02-22T10:55:13.815Z,83.15
2019-02-22T10:56:13.808Z,83.66
2019-02-22T10:57:13.831Z,83.11
2019-02-22T10:58:13.801Z,83.22
2019-02-22T10:59:13.765Z,83.11
2019-02-22T11:00:13.766Z,83.22
2019-02-22T11:01:13.745Z,82.91
2019-02-22T11:02:13.735Z,83.32
2019-02-22T11:03:13.753Z,82.60
2019-02-22T11:04:13.715Z,82.50
2019-02-22T11:05:13.727Z,83.01
2019-02-22T11:06:13.717Z,83.22
2019-02-22T11:07:13.680Z,83.01
2019-02-22T11:08:13.714Z,82.91
2019-02-22T11:09:13.658Z,82.40
2019-02-22T11:10:13.651Z,82.50
2019-02-22T11:11:13.672Z,82.97
2019-02-22T11:12:13.651Z,82.77
2019-02-22T11:13:13.672Z,82.46
2019-02-22T11:14:13.604Z,82.15
2019-02-22T11:15:13.604Z,82.26
2019-02-22T11:16:13.595Z,82.46
2019-02-22T11:17:13.592Z,82.77
2019-02-22T11:18:13.591Z,83.07
2019-02-22T11:19:13.526Z,82.15
2019-02-22T11:20:13.566Z,82.26
2019-02-22T11:21:13.521Z,82.26
2019-02-22T11:22:13.540Z,82.15
2019-02-22T11:23:13.528Z,81.85
2019-02-22T11:24:13.548Z,82.15
2019-02-22T11:25:13.510Z,82.01
2019-02-22T11:26:13.453Z,81.51
2019-02-22T11:27:13.475Z,82.12
2019-02-22T11:28:13.471Z,81.71
2019-02-22T11:29:13.461Z,81.71
2019-02-22T11:30:13.409Z,81.10
2019-02-22T11:31:15.070Z,81.71
2019-02-22T11:32:13.453Z,81.40
2019-02-22T11:33:13.422Z,81.51
2019-02-22T11:34:13.500Z,80.18
2019-02-22T11:35:13.388Z,79.77
2019-02-22T11:36:13.405Z,80.28
2019-02-22T11:37:13.395Z,80.18
2019-02-22T11:38:13.366Z,80.99
2019-02-22T11:39:13.359Z,80.79
2019-02-22T11:40:13.321Z,81.40
2019-02-22T11:41:13.325Z,81.30
2019-02-22T11:42:13.366Z,79.25
2019-02-22T11:43:13.328Z,79.25
2019-02-22T11:44:13.304Z,79.16
2019-02-22T11:45:13.241Z,78.64
2019-02-22T11:46:13.266Z,78.13
2019-02-22T11:47:13.220Z,79.05
2019-02-22T11:48:13.265Z,79.57
2019-02-22T11:49:13.226Z,79.16
2019-02-22T11:50:13.215Z,79.77
2019-02-22T11:51:13.179Z,79.70
2019-02-22T11:52:13.196Z,79.97
2019-02-22T11:53:13.239Z,80.48
2019-02-22T11:54:13.191Z,80.38
2019-02-22T11:55:13.228Z,79.70
2019-02-22T11:56:13.127Z,80.01
2019-02-22T11:57:13.109Z,80.38
2019-02-22T11:58:13.126Z,80.42
2019-02-22T11:59:13.107Z,80.18
2019-02-22T12:00:13.100Z,80.73
2019-02-22T12:01:13.141Z,80.21
2019-02-22T12:02:13.071Z,80.28
2019-02-22T12:03:24.206Z,80.18
2019-02-22T12:04:14.071Z,80.07
2019-02-22T12:05:13.072Z,80.01
2019-02-22T12:06:13.043Z,80.38
2019-02-22T12:07:13.075Z,80.69
2019-02-22T12:08:13.014Z,81.20
2019-02-22T12:09:13.025Z,80.07
2019-02-22T12:10:13.020Z,79.05
2019-02-22T12:11:12.976Z,79.09
2019-02-22T12:12:12.967Z,79.25
2019-02-22T12:13:12.962Z,79.77
2019-02-22T12:14:12.956Z,79.87
2019-02-22T12:15:12.979Z,79.66
2019-02-22T12:16:12.923Z,79.46
2019-02-22T12:17:12.918Z,79.66
2019-02-22T12:18:12.935Z,79.25
2019-02-22T12:19:12.900Z,80.07
2019-02-22T12:20:12.896Z,80.38
2019-02-22T12:21:12.878Z,79.66
2019-02-22T12:22:12.873Z,79.87
2019-02-22T12:23:12.837Z,79.87
2019-02-22T12:24:12.870Z,79.25
2019-02-22T12:25:12.826Z,79.57
2019-02-22T12:26:12.835Z,79.97
2019-02-22T12:27:14.174Z,79.57
2019-02-22T12:28:12.824Z,79.87
2019-02-22T12:29:12.814Z,79.87
2019-02-22T12:30:12.847Z,79.66
2019-02-22T12:31:12.809Z,79.87
2019-02-22T12:32:12.759Z,79.77
2019-02-22T12:33:12.711Z,78.75
2019-02-22T12:34:12.729Z,78.30
2019-02-22T12:35:12.721Z,78.30
2019-02-22T12:36:12.750Z,78.03
2019-02-22T12:37:12.703Z,78.41
2019-02-22T12:38:12.700Z,78.09
2019-02-22T12:39:12.685Z,78.41
2019-02-22T12:40:12.643Z,77.89
2019-02-22T12:41:12.668Z,78.20
2019-02-22T12:42:12.625Z,77.79
2019-02-22T12:43:12.644Z,78.20
2019-02-22T12:44:12.605Z,78.30
2019-02-22T12:45:12.596Z,77.69
2019-02-22T12:46:12.590Z,77.28
2019-02-22T12:47:12.621Z,77.79
2019-02-22T12:48:12.593Z,78.20
2019-02-22T12:49:12.549Z,78.09
2019-02-22T12:50:12.583Z,77.59
2019-02-22T12:51:12.527Z,77.48
2019-02-22T12:52:12.535Z,77.59
2019-02-22T12:53:12.493Z,77.48
2019-02-22T12:54:12.508Z,77.69